Time;durP1;ratioP1;P1;durP2;ratioP2;P2;SDS_P1;SDS_P2;PMS_P1;PMS_P2;Temp;Humidity;BMP_temperature;BMP_pressure;BME280_temperature;BME280_humidity;BME280_pressure;Samples;Min_cycle;Max_cycle;Signal;HPM_P1;HPM_P2
2022/03/22 00:04:56;;;;;;;21.13;14.07;;;7.60;68.90;;;;;;10526937;28;20317;-70
2022/03/22 00:09:57;;;;;;;19.80;13.47;;;7.60;68.40;;;;;;10519130;28;20287;-69
2022/03/22 00:14:58;;;;;;;19.97;13.20;;;7.60;67.70;;;;;;10519866;28;20234;-69
2022/03/22 00:19:59;;;;;;;19.73;13.80;;;7.60;67.90;;;;;;10519655;28;20304;-70
2022/03/22 00:24:59;;;;;;;22.20;13.53;;;7.50;68.10;;;;;;10523747;28;20218;-69
2022/03/22 00:30:00;;;;;;;18.33;13.73;;;7.50;68.80;;;;;;10501428;28;20243;-69
2022/03/22 00:35:01;;;;;;;18.00;13.63;;;7.40;69.20;;;;;;10522709;28;20310;-69
2022/03/22 00:40:06;;;;;;;20.00;13.83;;;7.20;71.20;;;;;;10522002;28;20239;-68
2022/03/22 00:45:07;;;;;;;25.03;15.00;;;7.10;71.70;;;;;;10517795;28;20568;-69
2022/03/22 00:50:09;;;;;;;22.80;14.97;;;7.00;71.70;;;;;;10528989;28;20187;-69
2022/03/22 00:55:12;;;;;;;23.47;15.07;;;7.10;71.50;;;;;;10516811;28;20223;-69
2022/03/22 01:00:13;;;;;;;20.47;14.13;;;7.00;71.60;;;;;;10498759;28;20283;-69
2022/03/22 01:05:16;;;;;;;18.67;14.00;;;6.90;72.40;;;;;;10498535;28;20198;-69
2022/03/22 01:10:18;;;;;;;21.07;14.13;;;6.70;73.50;;;;;;10500187;28;20631;-68
2022/03/22 01:15:26;;;;;;;22.27;14.87;;;6.60;74.10;;;;;;10516488;28;20226;-68
2022/03/22 01:20:26;;;;;;;20.23;14.70;;;6.60;73.80;;;;;;10511557;28;20661;-68
2022/03/22 01:25:27;;;;;;;24.27;14.57;;;6.70;73.10;;;;;;10523343;28;20236;-69
2022/03/22 01:30:29;;;;;;;21.33;14.37;;;6.70;72.40;;;;;;10511038;28;20218;-69
2022/03/22 01:35:30;;;;;;;17.77;13.90;;;6.60;72.40;;;;;;10525624;28;20234;-67
2022/03/22 01:40:31;;;;;;;21.60;14.17;;;6.60;72.80;;;;;;10510172;28;20285;-69
2022/03/22 01:45:32;;;;;;;28.37;15.17;;;6.50;73.20;;;;;;10507173;28;20278;-69
2022/03/22 01:50:33;;;;;;;23.07;15.10;;;6.50;73.30;;;;;;10491555;28;20230;-69
2022/03/22 01:55:34;;;;;;;23.23;14.67;;;6.50;73.60;;;;;;10507154;28;20230;-68
2022/03/22 02:00:35;;;;;;;19.33;13.43;;;6.40;73.80;;;;;;10517127;28;20219;-68
2022/03/22 02:05:51;;;;;;;20.40;12.87;;;6.30;72.90;;;;;;10516872;28;20230;-68
2022/03/22 02:10:52;;;;;;;15.57;11.20;;;6.30;72.20;;;;;;10510738;28;20226;-69
2022/03/22 02:15:56;;;;;;;16.30;10.87;;;6.30;71.40;;;;;;10516507;28;20305;-68
2022/03/22 02:20:58;;;;;;;14.50;10.70;;;6.30;70.80;;;;;;10510078;28;20339;-68
2022/03/22 02:25:59;;;;;;;16.67;11.03;;;6.30;70.90;;;;;;10518569;28;20466;-68
2022/03/22 02:30:59;;;;;;;15.20;10.53;;;6.30;70.80;;;;;;10512051;28;20229;-69
2022/03/22 02:36:00;;;;;;;14.23;10.37;;;6.20;70.70;;;;;;10510669;28;20233;-69
2022/03/22 02:41:01;;;;;;;13.87;10.37;;;6.20;70.70;;;;;;10515325;28;20225;-69
2022/03/22 02:46:01;;;;;;;17.37;11.23;;;6.20;70.50;;;;;;10505647;28;20226;-68
2022/03/22 02:51:04;;;;;;;16.67;11.07;;;6.20;70.40;;;;;;10510803;28;20222;-69
2022/03/22 02:56:05;;;;;;;15.67;10.93;;;6.20;70.20;;;;;;10512294;28;20321;-69
2022/03/22 03:01:05;;;;;;;19.27;12.33;;;6.10;69.90;;;;;;10510324;28;20249;-69
2022/03/22 03:06:06;;;;;;;16.60;10.77;;;6.10;70.00;;;;;;10515662;28;20226;-69
2022/03/22 03:11:07;;;;;;;14.60;10.80;;;6.10;70.20;;;;;;10501675;28;20235;-68
2022/03/22 03:16:07;;;;;;;16.93;11.00;;;6.00;70.50;;;;;;10513352;28;20230;-69
2022/03/22 03:21:08;;;;;;;15.37;10.87;;;6.00;71.00;;;;;;10515392;28;20317;-69
2022/03/22 03:26:09;;;;;;;14.20;10.50;;;5.90;71.40;;;;;;10512234;28;20230;-69
2022/03/22 03:31:09;;;;;;;17.47;11.00;;;5.90;71.60;;;;;;10512576;28;20635;-69
2022/03/22 03:36:10;;;;;;;16.17;11.33;;;5.80;71.80;;;;;;10518067;28;20234;-69
2022/03/22 03:51:51;;;;;;;19.77;11.70;;;5.70;72.80;;;;;;10514662;28;20226;-69
2022/03/22 03:56:52;;;;;;;17.43;11.47;;;5.60;73.20;;;;;;10523792;28;20280;-71
2022/03/22 04:01:53;;;;;;;15.57;11.27;;;5.60;73.40;;;;;;10514294;28;20961;-69
2022/03/22 04:06:54;;;;;;;17.97;11.63;;;5.60;73.70;;;;;;10523555;28;20226;-69
2022/03/22 04:11:55;;;;;;;17.73;11.50;;;5.50;73.90;;;;;;10516953;28;20234;-70
2022/03/22 04:16:59;;;;;;;15.37;11.40;;;5.50;74.10;;;;;;10525122;28;20237;-70
2022/03/22 04:22:00;;;;;;;19.00;11.97;;;5.40;74.10;;;;;;10525198;28;20226;-70
2022/03/22 04:37:39;;;;;;;16.37;11.23;;;5.50;73.70;;;;;;10514663;28;20227;-69
2022/03/22 04:42:42;;;;;;;20.37;11.83;;;5.60;73.30;;;;;;10514207;28;20264;-69
2022/03/22 04:47:46;;;;;;;16.00;11.77;;;5.60;73.10;;;;;;10528507;28;20279;-69
2022/03/22 04:58:06;;;;;;;18.50;11.10;;;5.70;71.90;;;;;;10518084;28;20215;-71
2022/03/22 05:03:10;;;;;;;15.20;11.03;;;5.80;71.60;;;;;;10518846;28;20215;-70
2022/03/22 05:08:10;;;;;;;16.33;10.97;;;5.80;71.20;;;;;;10510860;28;20257;-69
2022/03/22 05:13:11;;;;;;;14.87;10.83;;;5.80;70.90;;;;;;10504983;28;20633;-69
2022/03/22 05:18:13;;;;;;;19.40;11.40;;;5.80;70.70;;;;;;10499311;28;20305;-70
2022/03/22 05:23:15;;;;;;;16.13;10.60;;;5.90;70.70;;;;;;10496352;28;20227;-70
2022/03/22 05:28:16;;;;;;;16.63;11.63;;;5.90;70.10;;;;;;10516756;28;20279;-67
2022/03/22 05:33:17;;;;;;;15.93;11.40;;;6.00;70.50;;;;;;10510964;28;20813;-68
2022/03/22 05:38:17;;;;;;;16.57;11.63;;;6.00;70.00;;;;;;10507359;28;20685;-70
2022/03/22 05:43:18;;;;;;;15.13;11.83;;;5.90;71.00;;;;;;10511253;28;20314;-68
2022/03/22 05:48:19;;;;;;;16.10;11.90;;;5.80;72.40;;;;;;10507187;28;20218;-71
2022/03/22 05:53:20;;;;;;;15.87;11.07;;;5.70;73.70;;;;;;10516225;28;20226;-70
2022/03/22 05:58:20;;;;;;;18.07;11.97;;;5.60;73.70;;;;;;10522056;28;20223;-69
2022/03/22 06:03:21;;;;;;;20.13;12.63;;;5.60;75.00;;;;;;10510101;28;20231;-69
2022/03/22 06:08:22;;;;;;;18.80;12.93;;;5.50;75.60;;;;;;10521094;28;20225;-71
2022/03/22 06:13:23;;;;;;;17.03;12.77;;;5.40;76.20;;;;;;10514425;28;20231;-70
2022/03/22 06:18:23;;;;;;;16.30;12.40;;;5.40;76.40;;;;;;10522722;28;20226;-71
2022/03/22 06:23:24;;;;;;;18.63;12.23;;;5.50;77.00;;;;;;10516705;28;20234;-71
2022/03/22 06:28:25;;;;;;;30.47;13.03;;;5.60;76.60;;;;;;10517718;28;20238;-69
2022/03/22 06:33:26;;;;;;;19.30;13.07;;;5.80;75.80;;;;;;10515153;28;20238;-69
2022/03/22 06:38:27;;;;;;;20.23;12.50;;;6.00;74.90;;;;;;10507257;28;20673;-68
2022/03/22 06:43:28;;;;;;;19.97;12.23;;;6.20;74.40;;;;;;10506931;28;20293;-68
2022/03/22 06:48:28;;;;;;;19.60;12.43;;;6.50;72.70;;;;;;10538620;28;20226;-68
2022/03/22 06:53:29;;;;;;;18.27;12.90;;;6.70;72.10;;;;;;10531061;28;20257;-69
2022/03/22 06:58:30;;;;;;;17.13;12.37;;;7.30;69.70;;;;;;10497108;28;20355;-70
2022/03/22 07:03:32;;;;;;;18.10;11.63;;;7.50;69.10;;;;;;10513515;28;20223;-71
2022/03/22 07:08:33;;;;;;;22.93;12.70;;;7.60;68.20;;;;;;10542809;28;20254;-68
2022/03/22 07:13:34;;;;;;;17.87;12.57;;;8.00;67.50;;;;;;10502164;28;20314;-69
2022/03/22 07:18:34;;;;;;;19.87;12.70;;;8.50;65.80;;;;;;10513432;28;20215;-69
2022/03/22 07:23:35;;;;;;;16.07;12.73;;;8.40;65.40;;;;;;10497081;28;20224;-69
2022/03/22 07:28:36;;;;;;;25.10;13.20;;;8.30;67.00;;;;;;10523586;28;20218;-69
2022/03/22 07:33:37;;;;;;;21.17;13.10;;;8.60;66.20;;;;;;10496442;28;20230;-70
2022/03/22 07:38:38;;;;;;;18.47;12.87;;;8.50;66.00;;;;;;10539191;28;20230;-69
2022/03/22 07:43:41;;;;;;;18.63;13.30;;;8.70;66.40;;;;;;10530176;28;20634;-69
2022/03/22 07:48:41;;;;;;;19.67;11.50;;;8.90;64.20;;;;;;10514544;28;20281;-69
2022/03/22 07:53:43;;;;;;;14.60;10.97;;;10.70;57.00;;;;;;10522454;28;20299;-69
2022/03/22 07:58:44;;;;;;;16.07;11.27;;;12.40;50.50;;;;;;10525895;28;20213;-69
2022/03/22 08:03:45;;;;;;;16.43;10.60;;;14.40;46.00;;;;;;10514194;28;20225;-69
2022/03/22 08:08:45;;;;;;;13.20;10.23;;;15.70;42.20;;;;;;10520658;28;20726;-69
2022/03/22 08:13:46;;;;;;;15.20;10.60;;;16.10;40.30;;;;;;10521132;28;20229;-70
2022/03/22 08:18:47;;;;;;;12.70;11.20;;;17.80;38.70;;;;;;10520224;28;20215;-70
2022/03/22 08:23:50;;;;;;;12.60;10.50;;;17.40;38.20;;;;;;10512618;28;20265;-70
2022/03/22 08:28:51;;;;;;;12.40;10.03;;;17.20;37.40;;;;;;10514145;28;20255;-68
2022/03/22 08:33:53;;;;;;;11.97;10.17;;;17.50;37.30;;;;;;10517990;28;20772;-69
2022/03/22 08:38:54;;;;;;;12.27;10.17;;;18.10;36.50;;;;;;10515303;28;20251;-70
2022/03/22 08:43:55;;;;;;;11.80;10.60;;;19.00;35.30;;;;;;10504129;28;20247;-70
2022/03/22 08:48:56;;;;;;;13.20;10.87;;;19.10;34.50;;;;;;10505211;28;20208;-70
2022/03/22 08:53:56;;;;;;;11.17;9.80;;;18.60;34.30;;;;;;10517639;28;20238;-70
2022/03/22 08:59:00;;;;;;;12.97;10.40;;;19.40;33.50;;;;;;10519657;28;20223;-69
2022/03/22 09:09:24;;;;;;;14.10;9.83;;;20.60;31.80;;;;;;10521278;28;20318;-70
2022/03/22 09:14:24;;;;;;;13.13;10.50;;;20.30;31.60;;;;;;10498468;28;20221;-70
2022/03/22 09:19:25;;;;;;;12.07;10.77;;;20.50;31.50;;;;;;10506432;28;20223;-70
2022/03/22 09:24:25;;;;;;;11.57;10.47;;;20.10;32.20;;;;;;10512032;28;20223;-70
2022/03/22 09:29:26;;;;;;;11.93;10.63;;;20.60;31.90;;;;;;10517051;28;20297;-69
2022/03/22 09:34:28;;;;;;;12.07;10.47;;;20.60;31.80;;;;;;10510876;28;20224;-70
2022/03/22 09:39:32;;;;;;;15.07;10.83;;;22.00;30.70;;;;;;10516439;28;20216;-69
2022/03/22 09:44:34;;;;;;;13.60;10.73;;;22.10;30.50;;;;;;10521308;28;20221;-70
2022/03/22 09:49:37;;;;;;;13.43;11.63;;;23.30;30.20;;;;;;10520914;28;20214;-70
2022/03/22 09:54:42;;;;;;;11.97;8.97;;;23.50;28.60;;;;;;10499963;28;20424;-69
2022/03/22 09:59:42;;;;;;;10.70;9.37;;;23.30;27.80;;;;;;10517446;28;20225;-70
2022/03/22 10:04:43;;;;;;;12.13;9.60;;;22.80;27.80;;;;;;10491677;28;20234;-70
2022/03/22 10:10:01;;;;;;;10.93;9.83;;;22.40;28.80;;;;;;10500059;28;20315;-70
2022/03/22 10:15:16;;;;;;;10.40;9.30;;;22.90;28.70;;;;;;10513474;28;20236;-69
2022/03/22 10:20:22;;;;;;;12.73;9.53;;;23.90;27.00;;;;;;10514055;28;20221;-69
2022/03/22 10:25:23;;;;;;;10.47;9.47;;;24.10;27.00;;;;;;10510554;28;20257;-70
2022/03/22 10:30:24;;;;;;;10.37;9.40;;;25.20;25.90;;;;;;10514347;28;20233;-70
2022/03/22 10:35:30;;;;;;;14.23;9.83;;;25.20;25.10;;;;;;10509581;28;20232;-70
2022/03/22 10:40:40;;;;;;;11.90;9.23;;;23.50;26.40;;;;;;10515425;28;20224;-70
2022/03/22 10:45:47;;;;;;;10.10;9.10;;;24.30;26.00;;;;;;10515823;28;20217;-70
2022/03/22 10:50:50;;;;;;;11.77;9.53;;;24.70;26.10;;;;;;10508455;28;20685;-70
2022/03/22 10:55:50;;;;;;;11.63;8.97;;;25.00;25.50;;;;;;10514589;28;20230;-70
2022/03/22 11:00:56;;;;;;;10.13;9.03;;;25.50;25.20;;;;;;10495654;28;20252;-70
2022/03/22 11:06:02;;;;;;;12.77;9.20;;;25.10;25.30;;;;;;10512855;28;20305;-70
2022/03/22 11:11:02;;;;;;;10.03;9.03;;;25.20;25.70;;;;;;10491532;28;20275;-70
2022/03/22 11:16:04;;;;;;;10.90;9.53;;;25.20;24.90;;;;;;10512532;28;20252;-70
2022/03/22 11:21:05;;;;;;;15.50;9.23;;;24.50;25.50;;;;;;10496671;28;20236;-70
2022/03/22 11:26:20;;;;;;;14.03;9.87;;;25.40;25.10;;;;;;10511405;28;20217;-69
2022/03/22 11:31:26;;;;;;;13.80;9.80;;;25.20;25.00;;;;;;10490313;28;20229;-69
2022/03/22 11:36:35;;;;;;;10.43;9.40;;;22.20;28.40;;;;;;10513433;28;20239;-69
2022/03/22 11:47:07;;;;;;;10.63;9.53;;;18.10;33.20;;;;;;10518233;28;20604;-70
2022/03/22 11:52:12;;;;;;;11.20;9.20;;;17.60;35.60;;;;;;10498818;28;20240;-69
2022/03/22 11:57:20;;;;;;;10.80;8.83;;;17.60;35.20;;;;;;10510162;28;20291;-69
2022/03/22 12:02:27;;;;;;;9.37;8.37;;;17.30;34.90;;;;;;10496794;28;20216;-69
2022/03/22 12:07:32;;;;;;;11.63;8.37;;;17.00;35.90;;;;;;10512857;28;20233;-70
2022/03/22 12:12:34;;;;;;;15.17;8.87;;;16.90;35.50;;;;;;10514360;28;20237;-70
2022/03/22 12:17:36;;;;;;;11.07;8.90;;;16.80;35.40;;;;;;10521740;28;20240;-69
2022/03/22 12:22:46;;;;;;;12.00;8.57;;;16.70;36.20;;;;;;10513572;28;20289;-70
2022/03/22 12:28:08;;;;;;;9.67;7.83;;;16.80;35.90;;;;;;10514051;28;20227;-70
2022/03/22 12:33:21;;;;;;;10.07;8.67;;;16.70;36.10;;;;;;10521495;28;20219;-70
2022/03/22 12:38:21;;;;;;;9.90;7.63;;;16.70;35.50;;;;;;10520734;28;20691;-69
2022/03/22 12:43:23;;;;;;;11.60;7.13;;;16.60;34.70;;;;;;10514296;28;20235;-69
2022/03/22 12:48:24;;;;;;;10.50;7.80;;;16.50;33.80;;;;;;10518528;28;20234;-70
2022/03/22 12:53:24;;;;;;;10.73;7.70;;;16.50;34.80;;;;;;10528396;28;20231;-69
2022/03/22 12:58:28;;;;;;;11.80;8.20;;;16.60;34.00;;;;;;10513731;28;20294;-69
2022/03/22 13:03:30;;;;;;;8.70;7.23;;;16.50;34.60;;;;;;10500632;28;20262;-70
2022/03/22 13:19:17;;;;;;;11.97;7.17;;;16.90;35.30;;;;;;10523442;28;20315;-69
2022/03/22 13:24:31;;;;;;;9.03;7.97;;;16.90;34.90;;;;;;10511899;28;20672;-69
2022/03/22 13:29:39;;;;;;;11.83;8.00;;;17.00;34.60;;;;;;10513909;28;20587;-70
2022/03/22 13:34:44;;;;;;;8.37;7.23;;;17.00;34.70;;;;;;10510413;28;20331;-69
2022/03/22 13:39:48;;;;;;;10.90;6.97;;;17.10;34.40;;;;;;10517740;28;20235;-69
2022/03/22 13:45:00;;;;;;;11.10;7.13;;;17.20;34.20;;;;;;10522217;28;20304;-70
2022/03/22 13:50:10;;;;;;;9.10;7.33;;;17.20;34.70;;;;;;10521857;28;20618;-70
2022/03/22 13:55:11;;;;;;;11.43;7.27;;;17.20;34.30;;;;;;10517820;28;20228;-69
2022/03/22 14:00:12;;;;;;;10.60;7.30;;;17.30;34.60;;;;;;10514862;28;20189;-69
2022/03/22 14:05:13;;;;;;;10.93;7.17;;;17.40;35.30;;;;;;10522098;28;20208;-70
2022/03/22 14:10:14;;;;;;;9.73;7.13;;;17.40;33.40;;;;;;10514164;28;20228;-70
2022/03/22 14:15:15;;;;;;;11.07;7.27;;;17.30;33.90;;;;;;10524216;28;20275;-70
2022/03/22 14:20:17;;;;;;;9.50;7.77;;;17.50;35.00;;;;;;10518500;28;20679;-70
2022/03/22 14:25:20;;;;;;;13.73;7.70;;;17.60;34.20;;;;;;10514323;28;20249;-70
2022/03/22 14:30:23;;;;;;;10.83;8.13;;;17.60;34.50;;;;;;10506983;28;20181;-70
2022/03/22 14:40:47;;;;;;;10.80;7.40;;;17.50;34.80;;;;;;10510199;28;20221;-70
2022/03/22 14:45:47;;;;;;;9.90;7.00;;;17.50;34.80;;;;;;10514803;28;20639;-70
2022/03/22 14:50:49;;;;;;;12.07;8.00;;;17.50;34.80;;;;;;10497789;28;20296;-70
2022/03/22 14:58:47;;;;;;;11.83;7.33;;;17.50;34.80;;;;;;10516788;28;20315;-72
2022/03/22 15:01:17;;;;;;;9.13;7.33;;;17.50;35.30;;;;;;10515382;28;20221;-69
2022/03/22 15:06:18;;;;;;;10.93;7.97;;;17.50;35.20;;;;;;10496330;28;20224;-69
2022/03/22 15:11:20;;;;;;;9.00;8.10;;;17.50;35.60;;;;;;10509994;28;20233;-70
2022/03/22 15:16:20;;;;;;;11.33;7.87;;;17.40;35.30;;;;;;10505088;28;20264;-70
2022/03/22 15:21:21;;;;;;;11.73;7.60;;;17.40;35.40;;;;;;10514573;28;20243;-70
2022/03/22 15:26:22;;;;;;;11.40;7.73;;;17.40;35.60;;;;;;10509860;28;20277;-70
2022/03/22 15:31:22;;;;;;;10.20;7.67;;;17.30;35.90;;;;;;10497695;28;20311;-69
2022/03/22 15:36:24;;;;;;;11.10;8.20;;;17.30;35.40;;;;;;10511248;28;20735;-69
2022/03/22 15:41:24;;;;;;;11.17;7.57;;;17.20;36.30;;;;;;10513813;28;20327;-69
2022/03/22 15:46:25;;;;;;;11.13;7.27;;;17.20;35.90;;;;;;10522552;28;21770;-70
2022/03/22 15:51:26;;;;;;;10.23;7.27;;;17.10;36.10;;;;;;10524166;28;20792;-70
2022/03/22 15:56:27;;;;;;;10.40;7.27;;;17.00;35.90;;;;;;10513377;28;20233;-69
2022/03/22 16:01:29;;;;;;;11.70;7.07;;;17.00;36.00;;;;;;10515140;28;20218;-69
2022/03/22 16:06:30;;;;;;;11.80;7.57;;;17.00;36.10;;;;;;10529243;28;20255;-68
2022/03/22 16:11:30;;;;;;;9.50;7.23;;;16.90;36.10;;;;;;10514532;28;20267;-70
2022/03/22 16:16:31;;;;;;;12.13;7.20;;;16.80;36.60;;;;;;10505192;28;20236;-69
2022/03/22 16:21:31;;;;;;;10.13;7.27;;;16.80;36.30;;;;;;10520963;28;20224;-69
2022/03/22 16:26:32;;;;;;;10.90;7.97;;;16.70;36.50;;;;;;10513518;28;20227;-70
2022/03/22 16:31:33;;;;;;;10.67;8.97;;;16.70;38.00;;;;;;10519591;28;20302;-70
2022/03/22 16:36:47;;;;;;;16.40;8.93;;;16.60;41.20;;;;;;10513807;28;20242;-70
2022/03/22 16:41:54;;;;;;;12.37;8.93;;;16.40;41.20;;;;;;10514848;28;20232;-70
2022/03/22 16:46:56;;;;;;;13.67;9.27;;;16.20;41.40;;;;;;10518325;28;20297;-69
2022/03/22 16:51:57;;;;;;;14.30;9.80;;;16.10;42.60;;;;;;10515074;28;20224;-69
2022/03/22 16:57:00;;;;;;;11.53;9.77;;;15.90;44.00;;;;;;10507572;28;20624;-70
2022/03/22 17:02:02;;;;;;;12.53;9.13;;;15.80;45.10;;;;;;10519168;28;20221;-69
2022/03/22 17:07:03;;;;;;;11.00;9.60;;;15.50;45.60;;;;;;10506691;28;20223;-70
2022/03/22 17:12:07;;;;;;;11.90;10.37;;;15.50;46.40;;;;;;10516444;28;20358;-69
2022/03/22 17:17:10;;;;;;;14.53;10.40;;;15.30;46.90;;;;;;10521146;28;20251;-70
2022/03/22 17:22:11;;;;;;;13.90;11.27;;;15.10;47.30;;;;;;10515399;28;20249;-69
2022/03/22 17:27:13;;;;;;;13.07;10.53;;;14.90;48.10;;;;;;10515187;28;20250;-70
2022/03/22 17:32:13;;;;;;;11.57;10.37;;;14.60;49.50;;;;;;10502254;28;20229;-70
2022/03/22 17:37:14;;;;;;;13.73;10.33;;;14.30;49.50;;;;;;10524816;28;20231;-69
2022/03/22 17:42:15;;;;;;;13.00;11.13;;;14.00;50.40;;;;;;10532978;28;20257;-69
2022/03/22 17:47:15;;;;;;;11.30;10.10;;;13.70;50.90;;;;;;10530828;28;20639;-69
2022/03/22 17:52:16;;;;;;;13.27;10.43;;;13.50;51.60;;;;;;10524337;28;20304;-69
2022/03/22 17:57:16;;;;;;;12.60;11.20;;;13.20;52.50;;;;;;10524432;28;20403;-70
2022/03/22 18:02:17;;;;;;;14.40;11.87;;;12.90;53.30;;;;;;10507355;28;20222;-68
2022/03/22 18:07:18;;;;;;;18.50;14.00;;;12.70;54.00;;;;;;10495782;28;20292;-70
2022/03/22 18:12:18;;;;;;;18.20;13.33;;;12.50;54.50;;;;;;10533702;28;20234;-70
2022/03/22 18:17:22;;;;;;;16.53;13.83;;;12.60;54.10;;;;;;10527773;28;20234;-70
2022/03/22 18:22:22;;;;;;;16.60;13.30;;;12.70;54.00;;;;;;10530769;28;20357;-69
2022/03/22 18:27:23;;;;;;;17.67;13.10;;;12.50;54.80;;;;;;10517868;28;20234;-69
2022/03/22 18:32:24;;;;;;;17.57;13.47;;;12.30;55.40;;;;;;10515445;28;20230;-68
2022/03/22 18:37:24;;;;;;;15.60;13.10;;;12.20;55.30;;;;;;10509863;28;20231;-68
2022/03/22 18:42:26;;;;;;;14.73;12.47;;;12.10;56.00;;;;;;10509744;28;20317;-69
2022/03/22 18:47:28;;;;;;;14.90;12.50;;;11.90;56.60;;;;;;10525070;28;21032;-69
2022/03/22 18:52:30;;;;;;;16.77;14.00;;;11.70;57.10;;;;;;10501563;28;20219;-69
2022/03/22 18:57:30;;;;;;;16.77;13.13;;;11.50;57.90;;;;;;10523294;28;20240;-68
2022/03/22 19:02:31;;;;;;;15.63;13.20;;;11.40;57.90;;;;;;10511127;28;20229;-70
2022/03/22 19:07:32;;;;;;;16.83;13.00;;;11.40;57.90;;;;;;10508199;28;20258;-69
2022/03/22 19:12:32;;;;;;;18.07;13.20;;;11.30;58.30;;;;;;10513404;28;20313;-69
2022/03/22 19:17:48;;;;;;;16.00;13.50;;;11.20;58.60;;;;;;10515647;28;20313;-69
2022/03/22 19:22:55;;;;;;;18.27;14.07;;;11.20;58.60;;;;;;10497529;28;20292;-70
2022/03/22 19:27:58;;;;;;;21.63;14.30;;;11.10;58.80;;;;;;10521867;28;20887;-71
2022/03/22 19:33:06;;;;;;;21.47;15.13;;;11.10;59.60;;;;;;10516258;28;20227;-70
2022/03/22 19:38:08;;;;;;;22.70;15.97;;;11.00;60.00;;;;;;10516049;28;20227;-72
2022/03/22 19:43:09;;;;;;;20.73;15.57;;;11.00;60.90;;;;;;10523430;28;20271;-71
2022/03/22 19:48:11;;;;;;;21.07;16.17;;;11.10;60.30;;;;;;10524608;28;20284;-69
2022/03/22 19:53:20;;;;;;;18.03;14.73;;;11.00;60.90;;;;;;10522768;28;20223;-74
2022/03/22 19:58:21;;;;;;;19.30;14.27;;;10.90;60.80;;;;;;10505576;28;20223;-72
2022/03/22 20:03:26;;;;;;;17.77;13.10;;;10.90;60.40;;;;;;10520790;28;20376;-70
2022/03/22 20:08:33;;;;;;;20.10;15.40;;;10.80;60.40;;;;;;10507230;28;20265;-74
2022/03/22 20:13:33;;;;;;;21.03;14.67;;;10.60;62.90;;;;;;10524230;28;20214;-69
2022/03/22 20:18:34;;;;;;;20.47;14.70;;;10.40;65.50;;;;;;10515516;28;20609;-69
2022/03/22 20:23:35;;;;;;;20.90;14.90;;;10.20;66.00;;;;;;10503421;28;20218;-69
2022/03/22 20:28:37;;;;;;;19.77;13.97;;;10.10;67.50;;;;;;10494483;28;20222;-71
2022/03/22 20:33:41;;;;;;;20.30;14.50;;;9.90;69.30;;;;;;10505995;28;20223;-71
2022/03/22 20:38:42;;;;;;;16.43;12.97;;;9.70;70.20;;;;;;10495848;28;20246;-73
2022/03/22 20:43:42;;;;;;;22.53;17.50;;;9.60;68.70;;;;;;10536531;28;20305;-70
2022/03/22 20:48:45;;;;;;;18.97;14.80;;;9.60;70.40;;;;;;10514342;28;20226;-70
2022/03/22 20:53:45;;;;;;;21.77;13.87;;;9.60;69.40;;;;;;10521434;28;20230;-70
2022/03/22 20:59:04;;;;;;;20.43;14.40;;;9.60;68.80;;;;;;10527560;28;20229;-70
2022/03/22 21:04:06;;;;;;;23.57;15.93;;;9.50;68.80;;;;;;10519978;28;20239;-71
2022/03/22 21:09:07;;;;;;;21.87;14.63;;;9.40;71.20;;;;;;10516365;28;20677;-72
2022/03/22 21:14:08;;;;;;;21.80;16.03;;;9.40;71.90;;;;;;10506365;28;20249;-72
2022/03/22 21:19:10;;;;;;;23.17;16.37;;;9.40;71.00;;;;;;10508467;28;20227;-74
2022/03/22 21:24:11;;;;;;;27.50;19.27;;;9.30;70.50;;;;;;10505973;28;20227;-72
2022/03/22 21:29:12;;;;;;;20.10;14.53;;;9.20;70.30;;;;;;10513927;28;20215;-72
2022/03/22 21:34:13;;;;;;;18.50;13.70;;;9.30;68.60;;;;;;10496120;28;20781;-73
2022/03/22 21:39:14;;;;;;;20.60;14.30;;;9.30;67.70;;;;;;10514617;28;20229;-73
2022/03/22 21:44:15;;;;;;;17.70;13.00;;;9.30;68.50;;;;;;10531689;28;20230;-72
2022/03/22 21:49:15;;;;;;;18.10;14.20;;;9.30;68.10;;;;;;10505367;28;20223;-72
2022/03/22 21:54:16;;;;;;;19.10;13.07;;;9.20;69.20;;;;;;10516327;28;20230;-73
2022/03/22 21:59:17;;;;;;;20.50;16.10;;;9.10;69.60;;;;;;10508292;28;20293;-72
2022/03/22 22:04:18;;;;;;;24.53;17.63;;;8.90;71.20;;;;;;10521911;28;20222;-73
2022/03/22 22:09:18;;;;;;;20.63;15.17;;;8.90;72.50;;;;;;10537928;28;20278;-71
2022/03/22 22:14:19;;;;;;;22.03;16.27;;;8.70;72.30;;;;;;10510567;28;20306;-71
2022/03/22 22:19:24;;;;;;;23.77;16.27;;;8.50;73.30;;;;;;10501711;28;20221;-72
2022/03/22 22:24:31;;;;;;;19.20;14.00;;;8.50;74.50;;;;;;10517132;28;20620;-74
2022/03/22 22:29:32;;;;;;;18.50;14.80;;;8.30;74.00;;;;;;10519963;28;20219;-71
2022/03/22 22:34:33;;;;;;;15.77;11.90;;;8.30;73.90;;;;;;10506752;28;20559;-70
2022/03/22 22:39:33;;;;;;;16.43;11.77;;;8.20;72.20;;;;;;10513492;28;20250;-70
2022/03/22 22:44:35;;;;;;;14.67;10.83;;;8.10;72.00;;;;;;10518264;28;20250;-70
2022/03/22 22:49:35;;;;;;;15.00;11.23;;;8.20;70.10;;;;;;10511858;28;20265;-70
2022/03/22 22:54:36;;;;;;;17.53;12.33;;;8.20;70.30;;;;;;10515333;28;20255;-71
2022/03/22 22:59:37;;;;;;;16.93;11.23;;;8.10;72.20;;;;;;10518660;28;20218;-71
2022/03/22 23:04:38;;;;;;;16.50;11.43;;;8.00;72.30;;;;;;10499784;28;20421;-69
2022/03/22 23:14:59;;;;;;;18.40;12.43;;;8.00;72.00;;;;;;10526702;28;20308;-70
2022/03/22 23:20:00;;;;;;;15.37;11.47;;;7.80;74.30;;;;;;10519601;28;20236;-70
2022/03/22 23:25:01;;;;;;;15.80;12.83;;;7.70;74.50;;;;;;10499793;28;20226;-72
2022/03/22 23:30:03;;;;;;;16.07;12.90;;;7.50;74.80;;;;;;10502444;28;20223;-72
2022/03/22 23:35:05;;;;;;;15.77;12.47;;;7.50;76.00;;;;;;10523462;28;20347;-72
2022/03/22 23:40:06;;;;;;;17.73;13.03;;;7.40;75.80;;;;;;10513872;28;20196;-71
2022/03/22 23:45:09;;;;;;;17.33;12.33;;;7.40;75.80;;;;;;10519468;28;20186;-73
2022/03/22 23:50:12;;;;;;;18.60;11.73;;;7.20;76.10;;;;;;10491912;28;20194;-73
2022/03/22 23:55:13;;;;;;;16.77;12.80;;;7.10;77.60;;;;;;10521312;28;20204;-72
